Time;durP1;ratioP1;P1;durP2;ratioP2;P2;SDS_P1;SDS_P2;PMS_P1;PMS_P2;Temp;Humidity;BMP_temperature;BMP_pressure;BME280_temperature;BME280_humidity;BME280_pressure;Samples;Min_cycle;Max_cycle;Signal;HPM_P1;HPM_P2
2022/03/11 00:00:00;;;;;;;17.48;8.57;;;6.30;49.60;;;;;;5092303;28;20429;-55
2022/03/11 00:02:26;;;;;;;17.37;8.70;;;6.20;49.70;;;;;;5090509;28;20382;-57
2022/03/11 00:04:51;;;;;;;19.25;9.20;;;6.20;49.80;;;;;;5091641;28;20426;-55
2022/03/11 00:07:17;;;;;;;17.87;9.20;;;6.10;49.80;;;;;;5083569;28;20388;-55
2022/03/11 00:09:43;;;;;;;17.70;8.10;;;6.20;50.00;;;;;;5053174;28;21081;-56
2022/03/11 00:12:09;;;;;;;17.73;8.37;;;6.00;50.00;;;;;;5071986;28;20956;-56
2022/03/11 00:14:35;;;;;;;16.58;9.60;;;6.00;50.40;;;;;;5070915;28;20384;-56
2022/03/11 00:17:02;;;;;;;18.77;10.00;;;6.00;50.70;;;;;;5071871;28;20380;-55
2022/03/11 00:19:28;;;;;;;18.17;9.60;;;6.00;51.00;;;;;;5070829;28;20426;-56
2022/03/11 00:21:55;;;;;;;19.67;9.70;;;6.00;51.20;;;;;;5071873;28;20433;-56
2022/03/11 00:24:21;;;;;;;17.08;9.95;;;7.10;52.30;;;;;;5071775;28;20391;-55
2022/03/11 00:26:47;;;;;;;19.35;11.20;;;5.90;51.90;;;;;;5070769;28;20384;-56
2022/03/11 00:29:13;;;;;;;18.08;10.82;;;5.90;52.20;;;;;;5071564;28;20411;-56
2022/03/11 00:31:38;;;;;;;20.95;11.20;;;5.90;52.30;;;;;;5070746;28;20477;-56
2022/03/11 00:34:04;;;;;;;17.80;11.10;;;7.40;53.60;;;;;;5071829;28;20375;-56
2022/03/11 00:36:30;;;;;;;18.65;11.38;;;5.80;52.60;;;;;;5070778;28;20591;-56
2022/03/11 00:38:55;;;;;;;19.63;11.00;;;5.80;52.70;;;;;;5071496;28;20379;-55
2022/03/11 00:41:21;;;;;;;18.73;11.60;;;5.80;53.00;;;;;;5071463;28;20503;-56
2022/03/11 00:43:46;;;;;;;18.17;11.00;;;5.80;53.00;;;;;;5070615;28;20694;-55
2022/03/11 00:46:12;;;;;;;20.65;12.40;;;7.70;54.60;;;;;;5071064;28;20875;-55
2022/03/11 00:48:38;;;;;;;18.07;11.57;;;5.70;53.30;;;;;;5070418;28;20437;-56
2022/03/11 00:51:03;;;;;;;18.65;10.75;;;5.60;53.80;;;;;;5071153;28;20460;-55
2022/03/11 00:53:29;;;;;;;19.70;11.67;;;5.50;54.10;;;;;;5070381;28;20380;-56
2022/03/11 00:55:55;;;;;;;18.42;11.48;;;5.40;54.40;;;;;;5071344;28;20379;-55
2022/03/11 00:58:21;;;;;;;22.80;12.57;;;7.00;55.80;;;;;;5070715;28;20376;-56
2022/03/11 01:00:46;;;;;;;19.95;11.73;;;5.40;54.80;;;;;;5070265;28;21117;-56
2022/03/11 01:03:13;;;;;;;18.88;11.30;;;5.40;55.00;;;;;;5071157;28;20414;-56
2022/03/11 01:05:39;;;;;;;20.52;11.50;;;5.40;55.30;;;;;;5070293;28;20369;-56
2022/03/11 01:08:05;;;;;;;20.50;12.70;;;5.30;55.60;;;;;;5070928;28;20863;-56
2022/03/11 01:10:31;;;;;;;19.15;12.80;;;5.30;55.90;;;;;;5070223;28;20386;-56
2022/03/11 01:12:56;;;;;;;21.00;12.00;;;6.90;57.10;;;;;;5070856;28;20486;-56
2022/03/11 01:15:22;;;;;;;21.13;11.93;;;5.30;56.10;;;;;;5070640;28;20901;-56
2022/03/11 01:17:48;;;;;;;19.70;15.70;;;5.30;56.40;;;;;;5069976;28;20487;-55
2022/03/11 01:20:14;;;;;;;22.10;14.17;;;5.30;56.40;;;;;;5070668;28;20885;-56
2022/03/11 01:22:39;;;;;;;19.27;12.63;;;5.30;56.40;;;;;;5052073;28;20486;-55
2022/03/11 01:25:06;;;;;;;20.13;13.60;;;5.20;56.60;;;;;;5070843;28;20388;-55
2022/03/11 01:27:32;;;;;;;21.47;12.17;;;5.10;57.00;;;;;;5069538;28;20779;-56
2022/03/11 01:29:58;;;;;;;24.33;12.50;;;5.00;57.30;;;;;;5072425;28;20453;-56
2022/03/11 01:32:24;;;;;;;20.63;12.10;;;4.80;57.60;;;;;;5087235;28;20390;-56
2022/03/11 01:34:50;;;;;;;19.67;10.63;;;4.80;58.30;;;;;;5085355;28;20378;-56
2022/03/11 01:37:15;;;;;;;20.15;11.10;;;4.70;58.60;;;;;;5089679;28;20853;-56
2022/03/11 01:39:41;;;;;;;24.33;11.87;;;4.80;59.10;;;;;;5089052;28;20382;-55
2022/03/11 01:42:07;;;;;;;21.70;11.80;;;4.60;59.30;;;;;;5090201;28;20391;-55
2022/03/11 01:44:33;;;;;;;20.85;12.23;;;4.60;59.70;;;;;;5089478;28;20738;-56
2022/03/11 01:46:59;;;;;;;19.85;11.32;;;4.60;59.90;;;;;;5090294;28;20451;-55
2022/03/11 01:49:25;;;;;;;21.65;11.60;;;4.70;60.30;;;;;;5090586;28;20847;-55
2022/03/11 01:51:51;;;;;;;22.17;12.50;;;4.70;60.50;;;;;;5084363;28;20406;-55
2022/03/11 01:54:17;;;;;;;25.23;12.30;;;4.50;60.70;;;;;;5078615;28;20737;-55
2022/03/11 01:56:43;;;;;;;22.48;11.82;;;4.40;61.70;;;;;;5069122;28;20466;-55
2022/03/11 01:59:11;;;;;;;21.20;11.37;;;4.30;62.80;;;;;;5069962;28;20474;-55
2022/03/11 02:01:37;;;;;;;24.25;12.60;;;4.30;63.70;;;;;;5069202;28;20873;-55
2022/03/11 02:04:03;;;;;;;26.58;13.20;;;4.30;64.40;;;;;;5069953;28;20837;-56
2022/03/11 02:06:29;;;;;;;23.45;12.73;;;4.30;64.70;;;;;;5076499;28;20403;-56
2022/03/11 02:08:56;;;;;;;26.08;13.77;;;4.30;65.20;;;;;;5076010;28;20471;-55
2022/03/11 02:11:22;;;;;;;25.95;14.40;;;5.80;67.30;;;;;;5069647;28;20380;-56
2022/03/11 02:13:49;;;;;;;25.30;13.33;;;5.30;67.30;;;;;;5068896;28;20390;-56
2022/03/11 02:16:20;;;;;;;26.45;14.07;;;4.30;67.10;;;;;;5069769;28;20376;-56
2022/03/11 02:18:46;;;;;;;22.85;13.55;;;4.30;67.70;;;;;;5068908;28;20404;-56
2022/03/11 02:21:13;;;;;;;25.20;14.75;;;4.20;68.40;;;;;;5069641;28;20408;-56
2022/03/11 02:23:43;;;;;;;27.30;14.63;;;4.40;69.20;;;;;;5068981;28;20469;-56
2022/03/11 02:26:10;;;;;;;26.40;14.90;;;4.20;69.90;;;;;;5069973;28;20872;-56
2022/03/11 02:28:36;;;;;;;27.70;14.80;;;4.10;70.20;;;;;;5068505;28;20492;-56
2022/03/11 02:31:02;;;;;;;25.07;14.80;;;4.10;71.00;;;;;;5069458;28;20821;-56
2022/03/11 02:33:28;;;;;;;28.50;15.35;;;4.10;71.30;;;;;;5068913;28;20420;-56
2022/03/11 02:35:54;;;;;;;28.48;15.98;;;5.00;73.00;;;;;;5069092;28;20396;-56
2022/03/11 02:38:20;;;;;;;28.15;15.60;;;4.00;72.40;;;;;;5069568;28;20513;-56
2022/03/11 02:40:46;;;;;;;28.60;15.55;;;4.00;73.00;;;;;;5068714;28;20421;-56
2022/03/11 02:43:12;;;;;;;29.77;15.45;;;4.20;73.90;;;;;;5081955;28;20461;-56
2022/03/11 02:45:38;;;;;;;25.03;14.00;;;5.10;75.20;;;;;;5089521;28;20370;-56
2022/03/11 02:48:04;;;;;;;29.00;15.38;;;5.20;75.90;;;;;;5089364;28;20931;-56
2022/03/11 02:50:31;;;;;;;27.17;15.30;;;3.90;75.10;;;;;;5088881;28;20394;-56
2022/03/11 02:52:57;;;;;;;27.05;13.77;;;3.80;75.80;;;;;;5082821;28;20391;-56
2022/03/11 02:55:23;;;;;;;26.75;14.57;;;3.80;76.20;;;;;;5069092;28;20437;-56
2022/03/11 02:57:49;;;;;;;25.98;16.40;;;3.70;76.90;;;;;;5068957;28;20380;-56
2022/03/11 03:00:15;;;;;;;30.30;16.73;;;4.50;78.00;;;;;;5069489;28;20416;-56
2022/03/11 03:02:40;;;;;;;31.77;17.27;;;3.80;77.00;;;;;;5069249;28;20386;-56
2022/03/11 03:05:07;;;;;;;29.90;15.85;;;4.70;78.50;;;;;;5069952;28;20748;-56
2022/03/11 03:07:32;;;;;;;28.33;16.88;;;3.70;77.70;;;;;;5068767;28;20379;-57
2022/03/11 03:09:58;;;;;;;27.77;16.40;;;3.60;78.00;;;;;;5069819;28;20718;-56
2022/03/11 03:12:25;;;;;;;28.67;16.50;;;3.60;78.20;;;;;;5069037;28;20384;-56
2022/03/11 03:14:50;;;;;;;26.38;16.02;;;4.20;79.20;;;;;;5068792;28;20614;-56
2022/03/11 03:17:18;;;;;;;29.20;16.10;;;4.60;80.90;;;;;;5069314;28;20891;-56
2022/03/11 03:19:44;;;;;;;29.63;17.10;;;3.40;79.70;;;;;;5068547;28;20410;-56
2022/03/11 03:22:10;;;;;;;28.15;16.15;;;3.40;80.10;;;;;;5051499;28;20411;-56
2022/03/11 03:24:36;;;;;;;27.73;14.90;;;3.40;80.10;;;;;;5074313;28;20401;-55
2022/03/11 03:27:02;;;;;;;28.83;17.20;;;3.60;80.80;;;;;;5089219;28;20382;-56
2022/03/11 03:29:28;;;;;;;29.63;15.50;;;3.30;80.80;;;;;;5089060;28;20385;-56
2022/03/11 03:31:57;;;;;;;29.23;15.63;;;3.20;81.00;;;;;;5088681;28;20807;-56
2022/03/11 03:34:35;;;;;;;27.70;15.50;;;3.20;81.20;;;;;;5085325;28;20423;-56
2022/03/11 03:37:04;;;;;;;28.30;15.10;;;3.20;81.30;;;;;;5089299;28;20376;-56
2022/03/11 03:39:30;;;;;;;25.50;14.57;;;3.20;81.50;;;;;;5089254;28;20381;-57
2022/03/11 03:41:56;;;;;;;28.10;15.82;;;3.20;82.20;;;;;;5092911;28;20402;-56
2022/03/11 03:44:22;;;;;;;28.83;16.00;;;3.20;82.10;;;;;;5090156;28;20400;-56
2022/03/11 03:46:48;;;;;;;28.23;15.13;;;3.10;81.70;;;;;;5064602;28;21342;-56
2022/03/11 03:49:14;;;;;;;29.80;15.35;;;3.10;82.20;;;;;;5091756;28;20492;-56
2022/03/11 03:51:40;;;;;;;26.33;14.45;;;3.00;82.40;;;;;;5091724;28;20385;-56
2022/03/11 03:54:07;;;;;;;27.48;15.13;;;2.90;82.70;;;;;;5092528;28;20469;-56
2022/03/11 03:56:39;;;;;;;30.43;16.03;;;2.90;83.10;;;;;;5091868;28;20378;-56
2022/03/11 03:59:07;;;;;;;28.30;15.20;;;2.90;83.30;;;;;;5073118;28;20387;-56
2022/03/11 04:01:38;;;;;;;27.70;14.70;;;2.80;84.50;;;;;;5071718;28;20403;-56
2022/03/11 04:04:05;;;;;;;28.42;15.25;;;2.90;85.30;;;;;;5072444;28;20379;-56
2022/03/11 04:06:33;;;;;;;29.52;14.93;;;2.70;85.20;;;;;;5071854;28;20715;-56
2022/03/11 04:09:00;;;;;;;28.00;14.63;;;2.60;85.30;;;;;;5072587;28;20434;-56
2022/03/11 04:11:26;;;;;;;29.30;15.30;;;4.20;87.50;;;;;;5072328;28;20392;-56
2022/03/11 04:13:53;;;;;;;28.48;14.27;;;2.60;85.40;;;;;;5071342;28;20376;-56
2022/03/11 04:16:19;;;;;;;27.80;14.05;;;2.50;85.40;;;;;;5072189;28;20891;-56
2022/03/11 04:18:48;;;;;;;27.27;14.48;;;2.50;86.10;;;;;;5071195;28;20506;-56
2022/03/11 04:21:18;;;;;;;29.13;14.20;;;2.50;85.70;;;;;;5091142;28;20418;-56
2022/03/11 04:23:46;;;;;;;29.88;15.05;;;2.40;85.60;;;;;;5070944;28;20399;-56
2022/03/11 04:26:12;;;;;;;28.35;13.48;;;4.20;87.60;;;;;;5072079;28;20392;-56
2022/03/11 04:28:38;;;;;;;30.43;15.40;;;2.40;85.30;;;;;;5070932;28;20384;-56
2022/03/11 04:31:07;;;;;;;28.30;15.77;;;2.40;85.20;;;;;;5075237;28;20402;-56
2022/03/11 04:33:33;;;;;;;26.52;15.73;;;2.40;85.50;;;;;;5071382;28;20384;-56
2022/03/11 04:35:59;;;;;;;25.08;12.90;;;2.30;84.30;;;;;;5071494;28;20383;-56
2022/03/11 04:38:24;;;;;;;26.25;13.23;;;2.30;84.30;;;;;;5071894;28;20375;-56
2022/03/11 04:40:50;;;;;;;26.77;13.60;;;2.20;84.00;;;;;;5078738;28;20550;-56
2022/03/11 04:43:16;;;;;;;29.10;13.77;;;4.20;86.00;;;;;;5091649;28;20393;-56
2022/03/11 04:45:42;;;;;;;25.63;13.30;;;2.20;83.70;;;;;;5061079;28;20414;-56
2022/03/11 04:48:07;;;;;;;25.38;12.45;;;2.30;83.60;;;;;;5071523;28;20387;-56
2022/03/11 04:50:33;;;;;;;27.02;12.38;;;2.30;83.20;;;;;;5073561;28;20401;-56
2022/03/11 04:52:59;;;;;;;25.70;12.63;;;3.00;83.70;;;;;;5088511;28;20382;-56
2022/03/11 04:55:25;;;;;;;26.30;11.75;;;2.20;82.80;;;;;;5091712;28;20376;-56
2022/03/11 04:57:51;;;;;;;27.95;12.57;;;2.20;82.90;;;;;;5075236;28;20423;-56
2022/03/11 05:00:16;;;;;;;24.65;12.25;;;2.70;83.00;;;;;;5073301;28;20485;-56
2022/03/11 05:02:45;;;;;;;26.70;12.85;;;2.10;82.10;;;;;;5088256;28;20852;-56
2022/03/11 05:05:14;;;;;;;21.20;12.43;;;2.10;81.90;;;;;;5091334;28;20421;-56
2022/03/11 05:07:41;;;;;;;21.50;11.48;;;4.20;83.80;;;;;;5082041;28;20388;-55
2022/03/11 05:10:10;;;;;;;24.42;12.27;;;2.10;81.20;;;;;;5076388;28;20399;-56
2022/03/11 05:12:40;;;;;;;21.90;11.30;;;2.00;81.10;;;;;;5053194;28;20387;-56
2022/03/11 05:15:06;;;;;;;25.73;11.95;;;1.90;81.00;;;;;;5071019;28;20391;-56
2022/03/11 05:17:32;;;;;;;24.03;12.00;;;1.90;81.20;;;;;;5070405;28;20903;-56
2022/03/11 05:19:58;;;;;;;23.93;12.30;;;3.50;82.30;;;;;;5083658;28;20415;-56
2022/03/11 05:22:24;;;;;;;24.90;11.65;;;1.90;80.40;;;;;;5090826;28;20417;-55
2022/03/11 05:24:50;;;;;;;23.08;10.73;;;1.90;80.70;;;;;;5072576;28;20859;-56
2022/03/11 05:27:16;;;;;;;25.40;11.15;;;1.80;80.50;;;;;;5079499;28;20401;-55
2022/03/11 05:29:41;;;;;;;23.25;11.02;;;1.70;80.20;;;;;;5071922;28;20765;-56
2022/03/11 05:32:08;;;;;;;23.73;10.87;;;2.90;81.10;;;;;;5087105;28;20398;-56
2022/03/11 05:34:37;;;;;;;20.35;10.65;;;1.80;79.80;;;;;;5086266;28;20378;-56
2022/03/11 05:37:03;;;;;;;20.00;10.15;;;1.80;79.90;;;;;;5090592;28;20393;-56
2022/03/11 05:39:29;;;;;;;22.00;10.98;;;1.80;80.10;;;;;;5090926;28;20385;-56
2022/03/11 05:41:54;;;;;;;19.73;9.52;;;3.50;81.10;;;;;;5089411;28;20406;-56
2022/03/11 05:44:20;;;;;;;20.73;9.57;;;2.00;79.10;;;;;;5088499;28;20427;-56
2022/03/11 05:46:47;;;;;;;20.95;9.82;;;1.70;78.70;;;;;;5089869;28;20468;-56
2022/03/11 05:49:13;;;;;;;24.65;10.75;;;1.70;78.40;;;;;;5090312;28;20810;-56
2022/03/11 05:51:39;;;;;;;20.58;10.13;;;3.30;80.10;;;;;;5083761;28;20494;-56
2022/03/11 05:54:05;;;;;;;21.27;9.90;;;1.70;78.10;;;;;;5090334;28;20370;-55
2022/03/11 05:56:31;;;;;;;22.85;9.73;;;1.80;77.90;;;;;;5087159;28;20390;-56
2022/03/11 05:58:57;;;;;;;19.25;9.55;;;1.70;77.60;;;;;;5062926;28;20391;-57
2022/03/11 06:01:23;;;;;;;22.38;10.07;;;1.90;77.80;;;;;;5056833;28;20460;-56
2022/03/11 06:03:48;;;;;;;19.67;9.27;;;1.70;77.10;;;;;;5057289;28;20386;-56
2022/03/11 06:06:15;;;;;;;19.30;9.40;;;1.70;76.70;;;;;;5085290;28;20382;-56
2022/03/11 06:08:42;;;;;;;19.95;8.45;;;1.70;76.00;;;;;;5056465;28;20844;-57
2022/03/11 06:11:09;;;;;;;18.60;9.43;;;1.80;75.40;;;;;;5074145;28;20467;-56
2022/03/11 06:13:35;;;;;;;18.13;8.63;;;3.90;77.00;;;;;;5088678;28;20717;-57
2022/03/11 06:16:07;;;;;;;16.17;8.02;;;2.30;73.00;;;;;;5089630;28;20389;-56
2022/03/11 06:18:33;;;;;;;19.23;8.20;;;4.30;72.40;;;;;;5085035;28;20464;-56
2022/03/11 06:20:58;;;;;;;17.13;7.90;;;3.60;68.20;;;;;;5083463;28;20441;-56
2022/03/11 06:23:26;;;;;;;18.17;8.35;;;4.20;64.10;;;;;;5088105;28;20503;-56
2022/03/11 06:25:51;;;;;;;16.23;7.87;;;4.70;61.30;;;;;;5086036;28;20396;-54
2022/03/11 06:28:17;;;;;;;30.77;8.35;;;6.70;60.20;;;;;;5081260;28;20866;-54
2022/03/11 06:30:46;;;;;;;16.55;8.40;;;6.00;56.70;;;;;;5084495;28;20406;-54
2022/03/11 06:33:12;;;;;;;14.52;7.28;;;6.60;55.30;;;;;;5085185;28;21008;-54
2022/03/11 06:35:38;;;;;;;16.67;8.07;;;6.90;53.00;;;;;;5087893;28;20374;-55
2022/03/11 06:38:03;;;;;;;14.33;6.90;;;6.80;52.20;;;;;;5080265;28;20392;-54
2022/03/11 06:40:29;;;;;;;14.95;7.78;;;6.90;51.10;;;;;;5080634;28;20418;-54
2022/03/11 06:42:55;;;;;;;16.00;8.00;;;7.30;51.20;;;;;;5088585;28;20548;-57
2022/03/11 06:45:21;;;;;;;14.47;7.50;;;7.90;49.70;;;;;;5080260;28;20412;-57
2022/03/11 06:47:47;;;;;;;15.82;7.60;;;8.20;48.40;;;;;;5087647;28;20410;-56
2022/03/11 06:50:15;;;;;;;16.67;7.45;;;8.60;46.50;;;;;;5070308;28;20449;-57
2022/03/11 06:52:41;;;;;;;16.35;7.88;;;8.80;45.90;;;;;;5072173;28;20845;-58
2022/03/11 06:55:07;;;;;;;14.30;7.70;;;9.00;45.10;;;;;;5077484;28;20401;-57
2022/03/11 06:57:34;;;;;;;12.95;6.80;;;9.30;44.20;;;;;;5089199;28;20401;-57
2022/03/11 07:00:00;;;;;;;13.40;7.25;;;9.00;43.30;;;;;;5088731;28;20412;-57
2022/03/11 07:02:26;;;;;;;14.38;7.47;;;8.80;43.60;;;;;;5088349;28;20430;-57
2022/03/11 07:04:51;;;;;;;14.83;6.60;;;8.90;43.60;;;;;;5080578;28;20919;-57
2022/03/11 07:07:17;;;;;;;13.88;6.82;;;9.20;42.70;;;;;;5078364;28;20755;-57
2022/03/11 07:09:43;;;;;;;14.57;8.07;;;9.30;42.30;;;;;;5078544;28;20406;-57
2022/03/11 07:12:08;;;;;;;13.60;7.30;;;9.30;41.50;;;;;;5089517;28;20390;-57
2022/03/11 07:14:35;;;;;;;12.67;6.53;;;9.10;42.10;;;;;;5084301;28;20405;-57
2022/03/11 07:17:05;;;;;;;14.65;7.47;;;10.00;41.20;;;;;;5092357;28;20736;-57
2022/03/11 07:19:33;;;;;;;15.13;7.95;;;10.10;39.70;;;;;;5092424;28;20482;-58
2022/03/11 07:22:02;;;;;;;13.60;7.10;;;10.50;39.60;;;;;;5092261;28;20882;-55
2022/03/11 07:24:28;;;;;;;15.48;7.35;;;10.80;38.30;;;;;;5093154;28;20382;-57
2022/03/11 07:26:54;;;;;;;12.32;7.32;;;10.60;37.90;;;;;;5091606;28;20431;-55
2022/03/11 07:29:20;;;;;;;15.67;8.10;;;10.80;37.70;;;;;;5092627;28;20852;-55
2022/03/11 07:31:45;;;;;;;14.75;7.80;;;11.30;37.80;;;;;;5092026;28;20397;-55
2022/03/11 07:34:11;;;;;;;13.90;7.60;;;11.80;36.40;;;;;;5092756;28;20843;-55
2022/03/11 07:36:38;;;;;;;17.13;7.60;;;11.90;36.40;;;;;;5092373;28;20382;-55
2022/03/11 07:39:05;;;;;;;13.77;7.50;;;12.20;36.60;;;;;;5092567;28;20404;-57
2022/03/11 07:41:31;;;;;;;13.98;7.05;;;13.00;35.30;;;;;;5092653;28;20404;-55
2022/03/11 07:43:57;;;;;;;13.00;7.00;;;12.50;34.40;;;;;;5091242;28;20709;-55
2022/03/11 07:46:23;;;;;;;17.10;7.57;;;12.10;34.30;;;;;;5092625;28;20442;-55
2022/03/11 07:48:52;;;;;;;12.40;6.78;;;12.60;34.70;;;;;;5091716;28;20441;-56
2022/03/11 07:51:18;;;;;;;15.30;7.00;;;12.70;33.80;;;;;;5086794;28;20795;-55
2022/03/11 07:53:44;;;;;;;15.40;7.70;;;12.60;33.60;;;;;;5080569;28;20845;-55
2022/03/11 07:56:11;;;;;;;15.85;7.47;;;11.90;33.60;;;;;;5092205;28;20375;-55
2022/03/11 07:58:39;;;;;;;12.63;7.15;;;11.70;34.80;;;;;;5091947;28;20465;-55
2022/03/11 08:01:07;;;;;;;13.68;7.00;;;11.90;34.50;;;;;;5092379;28;20505;-55
2022/03/11 08:03:33;;;;;;;16.10;7.43;;;12.20;34.10;;;;;;5092213;28;20380;-55
2022/03/11 08:06:00;;;;;;;14.60;7.47;;;12.00;34.10;;;;;;5091704;28;20404;-56
2022/03/11 08:08:26;;;;;;;15.48;7.50;;;12.60;34.00;;;;;;5092315;28;20393;-58
2022/03/11 08:10:54;;;;;;;12.68;7.63;;;13.80;33.50;;;;;;5091283;28;20421;-58
2022/03/11 08:13:20;;;;;;;13.85;7.28;;;14.80;32.40;;;;;;5091683;28;20423;-58
2022/03/11 08:15:46;;;;;;;14.32;8.60;;;15.40;31.20;;;;;;5090372;28;20393;-58
2022/03/11 08:18:12;;;;;;;14.00;7.83;;;15.70;30.40;;;;;;5091750;28;20743;-58
2022/03/11 08:20:37;;;;;;;16.98;8.45;;;15.60;30.80;;;;;;5091683;28;20424;-58
2022/03/11 08:23:03;;;;;;;15.70;8.90;;;15.20;30.60;;;;;;5073800;28;20390;-58
2022/03/11 08:25:29;;;;;;;18.00;11.83;;;15.80;31.10;;;;;;5091132;28;20385;-57
2022/03/11 08:27:55;;;;;;;14.10;10.57;;;16.10;30.20;;;;;;5090954;28;20374;-56
2022/03/11 08:30:22;;;;;;;17.80;11.50;;;16.20;29.80;;;;;;5091561;28;20393;-58
2022/03/11 08:32:48;;;;;;;17.05;11.02;;;15.10;30.40;;;;;;5091009;28;20420;-58
2022/03/11 08:35:14;;;;;;;16.88;11.00;;;14.50;30.90;;;;;;5091271;28;20381;-59
2022/03/11 08:37:41;;;;;;;16.65;11.05;;;14.50;31.50;;;;;;5091080;28;20381;-58
2022/03/11 08:40:09;;;;;;;18.95;12.13;;;15.30;31.20;;;;;;5091566;28;20382;-58
2022/03/11 08:42:35;;;;;;;18.65;12.32;;;15.40;31.20;;;;;;5090782;28;20890;-58
2022/03/11 08:45:02;;;;;;;17.85;11.63;;;;;;;;;;5091074;28;20405;-57
2022/03/11 08:47:28;;;;;;;17.77;12.10;;;16.60;29.60;;;;;;5091379;28;20473;-57
2022/03/11 08:49:54;;;;;;;18.57;13.00;;;16.90;29.80;;;;;;5090327;28;20402;-56
2022/03/11 08:52:19;;;;;;;19.08;14.93;;;16.90;29.80;;;;;;5091049;28;20470;-56
2022/03/11 08:54:46;;;;;;;18.13;14.57;;;16.70;30.00;;;;;;5091012;28;20375;-57
2022/03/11 08:57:11;;;;;;;18.88;14.20;;;15.70;30.00;;;;;;5089886;28;21277;-56
2022/03/11 08:59:37;;;;;;;19.45;14.20;;;16.20;30.50;;;;;;5091183;28;20843;-56
2022/03/11 09:02:06;;;;;;;21.13;14.43;;;16.60;29.90;;;;;;5090518;28;20437;-57
2022/03/11 09:04:33;;;;;;;17.55;12.75;;;16.60;29.80;;;;;;5090780;28;20403;-57
2022/03/11 09:06:59;;;;;;;16.70;12.90;;;16.90;29.50;;;;;;5071826;28;20798;-57
2022/03/11 09:09:24;;;;;;;15.50;12.50;;;17.10;29.20;;;;;;5071408;28;20459;-57
2022/03/11 09:11:50;;;;;;;17.80;13.60;;;16.40;29.30;;;;;;5089608;28;20720;-57
2022/03/11 09:14:16;;;;;;;17.35;13.60;;;16.80;29.50;;;;;;5090238;28;20382;-56
2022/03/11 09:16:42;;;;;;;19.67;14.43;;;17.40;28.90;;;;;;5055242;28;20475;-57
2022/03/11 09:19:08;;;;;;;16.85;12.65;;;17.70;28.70;;;;;;5070315;28;20490;-57
2022/03/11 09:21:34;;;;;;;17.13;14.70;;;18.10;28.00;;;;;;5052184;28;20482;-56
2022/03/11 09:24:00;;;;;;;15.73;10.33;;;18.10;28.40;;;;;;5083248;28;20396;-57
2022/03/11 09:26:26;;;;;;;16.83;11.48;;;18.00;28.30;;;;;;5090104;28;20473;-57
2022/03/11 09:28:52;;;;;;;16.65;12.68;;;18.20;28.00;;;;;;5090319;28;20374;-57
2022/03/11 09:31:17;;;;;;;19.33;13.25;;;17.30;27.90;;;;;;5052670;28;20406;-57
2022/03/11 09:33:43;;;;;;;18.65;13.93;;;17.30;28.40;;;;;;5069233;28;20451;-57
2022/03/11 09:36:09;;;;;;;16.33;13.27;;;17.20;28.30;;;;;;5070015;28;20911;-57
2022/03/11 09:38:38;;;;;;;18.20;12.80;;;16.50;28.60;;;;;;5072730;28;20374;-56
2022/03/11 09:41:05;;;;;;;16.17;12.90;;;15.70;29.20;;;;;;5089385;28;20756;-58
2022/03/11 09:43:32;;;;;;;20.33;13.73;;;15.60;29.60;;;;;;5080661;28;20401;-59
2022/03/11 09:45:58;;;;;;;16.17;13.52;;;15.90;29.60;;;;;;5080721;28;20457;-57
2022/03/11 09:48:25;;;;;;;16.00;13.20;;;17.00;29.30;;;;;;5084119;28;20497;-57
2022/03/11 09:50:50;;;;;;;15.38;12.10;;;17.80;29.00;;;;;;5084376;28;20398;-57
2022/03/11 09:53:17;;;;;;;18.63;12.33;;;17.30;28.20;;;;;;5064722;28;20914;-57
2022/03/11 09:55:43;;;;;;;18.48;12.95;;;16.60;29.30;;;;;;5089513;28;20374;-57
2022/03/11 09:58:09;;;;;;;16.35;12.00;;;16.90;29.30;;;;;;5090239;28;20381;-57
2022/03/11 10:00:36;;;;;;;17.70;12.65;;;17.50;28.70;;;;;;5089741;28;20397;-57
2022/03/11 10:03:02;;;;;;;17.73;12.30;;;16.90;28.60;;;;;;5089580;28;20402;-57
2022/03/11 10:06:04;;;;;;;17.60;12.13;;;16.00;29.50;;;;;;5090203;28;20929;-57
2022/03/11 10:08:37;;;;;;;18.25;12.18;;;16.30;29.40;;;;;;4982929;28;20868;-57
2022/03/11 10:11:17;;;;;;;16.85;12.10;;;17.00;29.30;;;;;;5068381;28;20491;-57
2022/03/11 10:13:42;;;;;;;16.47;11.20;;;17.60;28.60;;;;;;5077091;28;20406;-57
2022/03/11 10:16:23;;;;;;;17.20;12.35;;;18.10;28.50;;;;;;5073421;28;20401;-57
2022/03/11 10:18:55;;;;;;;19.85;12.77;;;18.00;28.30;;;;;;5084777;28;20421;-57
2022/03/11 10:21:40;;;;;;;16.02;12.65;;;17.90;28.40;;;;;;5070977;28;20456;-57
2022/03/11 10:24:09;;;;;;;17.35;12.50;;;17.30;28.60;;;;;;5071194;28;20493;-57
2022/03/11 10:26:44;;;;;;;16.23;13.17;;;17.40;28.90;;;;;;5089505;28;20406;-55
2022/03/11 10:29:14;;;;;;;15.80;13.30;;;18.10;28.50;;;;;;5089803;28;20418;-57
2022/03/11 10:31:43;;;;;;;15.97;14.27;;;17.10;28.70;;;;;;5089088;28;20394;-57
2022/03/11 10:34:25;;;;;;;15.30;13.63;;;16.60;29.10;;;;;;5089349;28;20843;-57
2022/03/11 10:36:56;;;;;;;17.00;13.18;;;18.00;29.00;;;;;;5088009;28;20386;-58
2022/03/11 10:39:36;;;;;;;18.60;16.57;;;18.90;28.10;;;;;;5089041;28;20816;-57
2022/03/11 10:42:23;;;;;;;17.20;14.60;;;19.60;28.20;;;;;;5088751;28;20476;-57
2022/03/11 10:45:03;;;;;;;14.10;8.50;;;19.70;27.60;;;;;;5088668;28;20465;-57
2022/03/11 10:47:31;;;;;;;18.48;10.10;;;19.50;27.80;;;;;;5058199;28;20446;-57
2022/03/11 10:49:59;;;;;;;17.25;10.30;;;19.50;27.40;;;;;;5072065;28;20399;-57
2022/03/11 10:52:43;;;;;;;16.38;10.18;;;19.40;27.80;;;;;;5087037;28;20747;-57
2022/03/11 10:55:34;;;;;;;16.63;9.20;;;19.50;27.80;;;;;;5093147;28;20374;-57
2022/03/11 10:58:03;;;;;;;17.83;9.43;;;19.30;27.60;;;;;;5092583;28;20381;-58
2022/03/11 11:00:35;;;;;;;18.48;9.80;;;19.50;27.70;;;;;;5093154;28;20402;-57
2022/03/11 11:03:04;;;;;;;17.42;10.50;;;19.40;28.00;;;;;;5092563;28;20389;-58
2022/03/11 11:05:30;;;;;;;16.15;9.68;;;19.00;28.30;;;;;;5091149;28;20392;-57
2022/03/11 11:07:57;;;;;;;16.45;11.45;;;19.20;28.20;;;;;;5072488;28;20525;-57
2022/03/11 11:10:25;;;;;;;18.77;16.10;;;19.50;27.90;;;;;;5084433;28;20825;-57
2022/03/11 11:12:51;;;;;;;17.23;9.47;;;19.60;28.00;;;;;;5092410;28;20385;-57
2022/03/11 11:15:17;;;;;;;17.05;9.60;;;19.60;27.50;;;;;;5093397;28;20431;-57
2022/03/11 11:17:45;;;;;;;16.80;10.18;;;19.10;27.70;;;;;;5077287;28;20411;-57
2022/03/11 11:20:37;;;;;;;16.27;10.10;;;19.40;28.00;;;;;;5079635;28;20890;-56
2022/03/11 11:23:05;;;;;;;17.33;10.03;;;19.20;27.80;;;;;;5084702;28;20382;-57
2022/03/11 11:25:34;;;;;;;18.80;10.00;;;18.50;28.10;;;;;;5065980;28;20882;-56
2022/03/11 11:28:14;;;;;;;17.42;9.98;;;18.50;28.40;;;;;;5081995;28;20411;-57
2022/03/11 11:30:40;;;;;;;18.30;9.80;;;17.80;28.60;;;;;;5080335;28;20404;-57
2022/03/11 11:33:06;;;;;;;16.55;10.32;;;18.00;28.60;;;;;;5062185;28;20423;-57
2022/03/11 11:35:35;;;;;;;16.88;10.75;;;18.10;28.90;;;;;;5078260;28;20764;-57
2022/03/11 11:38:07;;;;;;;17.13;10.37;;;17.90;28.80;;;;;;5075936;28;20396;-57
2022/03/11 11:40:38;;;;;;;16.40;10.43;;;17.20;28.90;;;;;;5063297;28;20466;-57
2022/03/11 11:43:34;;;;;;;18.30;10.20;;;16.90;29.90;;;;;;5079850;28;20433;-57
2022/03/11 11:46:14;;;;;;;16.95;10.00;;;16.60;30.00;;;;;;5076329;28;20398;-57
2022/03/11 11:48:45;;;;;;;16.85;9.60;;;16.30;30.20;;;;;;5077962;28;20406;-59
2022/03/11 11:51:14;;;;;;;16.70;9.60;;;15.40;30.60;;;;;;5083485;28;20903;-57
2022/03/11 11:53:53;;;;;;;18.40;10.02;;;15.10;31.70;;;;;;5078149;28;20414;-57
2022/03/11 11:56:38;;;;;;;19.57;10.10;;;14.90;32.30;;;;;;5084010;28;20965;-57
2022/03/11 11:59:08;;;;;;;18.15;10.10;;;14.90;32.10;;;;;;5081663;28;20854;-57
2022/03/11 12:01:39;;;;;;;19.20;9.85;;;14.70;32.30;;;;;;5080490;28;20402;-57
2022/03/11 12:04:21;;;;;;;17.42;10.32;;;15.00;32.00;;;;;;5078777;28;20414;-57
2022/03/11 12:07:09;;;;;;;16.30;10.70;;;15.50;32.40;;;;;;5081986;28;20441;-56
2022/03/11 12:10:02;;;;;;;18.98;10.48;;;15.70;32.00;;;;;;5061824;28;20391;-57
2022/03/11 12:12:32;;;;;;;17.23;10.18;;;15.40;31.80;;;;;;5080903;28;20427;-56
2022/03/11 12:15:01;;;;;;;16.58;10.02;;;15.40;32.80;;;;;;5086438;28;20488;-58
2022/03/11 12:17:52;;;;;;;17.25;9.70;;;15.30;32.90;;;;;;5082085;28;20454;-57
2022/03/11 12:20:31;;;;;;;17.13;10.88;;;15.00;32.60;;;;;;5072421;28;20827;-56
2022/03/11 12:22:58;;;;;;;18.20;9.48;;;14.80;33.60;;;;;;5077741;28;21255;-57
2022/03/11 12:25:38;;;;;;;18.27;10.07;;;14.70;33.00;;;;;;5078912;28;20899;-57
2022/03/11 12:28:31;;;;;;;18.15;9.65;;;14.50;33.70;;;;;;5085685;28;20998;-57
2022/03/11 12:30:57;;;;;;;18.85;9.55;;;14.50;33.90;;;;;;5086623;28;20394;-56
2022/03/11 12:33:30;;;;;;;16.38;9.50;;;14.70;34.20;;;;;;5080750;28;20393;-53
2022/03/11 12:35:56;;;;;;;18.30;10.10;;;15.30;34.00;;;;;;5082996;28;20420;-59
2022/03/11 12:38:25;;;;;;;15.07;9.10;;;15.30;33.20;;;;;;5085325;28;20454;-59